createdAt,value
2018-06-20T00:01:09.411Z,92514.18
2018-06-20T00:03:43.377Z,92508.11
2018-06-20T00:06:17.377Z,92509.15
2018-06-20T00:08:52.074Z,92512.17
2018-06-20T00:11:26.099Z,92508.70
2018-06-20T00:14:00.045Z,92502.81
2018-06-20T00:16:34.218Z,92510.56
2018-06-20T00:19:08.272Z,92509.28
2018-06-20T00:21:42.353Z,92510.83
2018-06-20T00:24:16.235Z,92498.83
2018-06-20T00:26:50.166Z,92506.72
2018-06-20T00:29:24.107Z,92503.25
2018-06-20T00:31:58.120Z,92505.48
2018-06-20T00:34:32.047Z,92502.92
2018-06-20T00:37:06.118Z,92501.56
2018-06-20T00:39:40.295Z,92503.95
2018-06-20T00:42:14.307Z,92504.04
2018-06-20T00:44:48.465Z,92502.59
2018-06-20T00:47:22.526Z,92508.95
2018-06-20T00:49:56.590Z,92503.77
2018-06-20T00:52:30.561Z,92499.98
2018-06-20T00:55:04.509Z,92504.44
2018-06-20T00:57:38.594Z,92512.19
2018-06-20T01:00:12.712Z,92503.42
2018-06-20T01:02:46.731Z,92504.69
2018-06-20T01:05:20.583Z,92504.70
2018-06-20T01:07:54.615Z,92505.09
2018-06-20T01:10:28.531Z,92508.23
2018-06-20T01:13:02.615Z,92512.28
2018-06-20T01:15:36.597Z,92506.51
2018-06-20T01:18:10.674Z,92515.97
2018-06-20T01:20:44.649Z,92513.77
2018-06-20T01:23:18.785Z,92513.70
2018-06-20T01:25:52.771Z,92513.00
2018-06-20T01:28:26.819Z,92515.74
2018-06-20T01:31:00.786Z,92512.12
2018-06-20T01:33:34.847Z,92511.63
2018-06-20T01:36:08.845Z,92513.91
2018-06-20T01:38:42.847Z,92516.89
2018-06-20T01:41:16.802Z,92516.11
2018-06-20T01:43:50.855Z,92503.25
2018-06-20T01:46:24.963Z,92510.63
2018-06-20T01:48:59.143Z,92519.59
2018-06-20T01:51:33.095Z,92519.46
2018-06-20T01:54:07.135Z,92525.59
2018-06-20T01:56:41.046Z,92520.14
2018-06-20T01:59:15.068Z,92522.33
2018-06-20T02:01:49.052Z,92524.28
2018-06-20T02:04:23.075Z,92521.36
2018-06-20T02:06:57.163Z,92531.03
2018-06-20T02:09:31.181Z,92529.05
2018-06-20T02:12:05.207Z,92529.62
2018-06-20T02:14:39.195Z,92534.23
2018-06-20T02:17:13.079Z,92528.20
2018-06-20T02:19:47.224Z,92533.13
2018-06-20T02:22:21.187Z,92537.11
2018-06-20T02:24:55.107Z,92532.13
2018-06-20T02:27:29.106Z,92538.11
2018-06-20T02:30:03.488Z,92543.37
2018-06-20T02:32:37.331Z,92541.14
2018-06-20T02:35:11.418Z,92542.13
2018-06-20T02:37:45.464Z,92547.66
2018-06-20T02:40:19.486Z,92557.66
2018-06-20T02:42:53.512Z,92561.53
2018-06-20T02:45:27.764Z,92561.93
2018-06-20T02:48:01.746Z,92562.70
2018-06-20T02:50:35.674Z,92568.48
2018-06-20T02:53:09.551Z,92565.44
2018-06-20T02:55:43.661Z,92571.22
2018-06-20T02:58:17.624Z,92570.21
2018-06-20T03:00:51.837Z,92569.41
2018-06-20T03:03:25.670Z,92562.48
2018-06-20T03:05:59.860Z,92568.63
2018-06-20T03:08:33.791Z,92569.72
2018-06-20T03:11:07.860Z,92573.66
2018-06-20T03:13:41.836Z,92573.80
2018-06-20T03:16:15.929Z,92574.78
2018-06-20T03:18:50.072Z,92583.66
2018-06-20T03:21:24.097Z,92582.91
2018-06-20T03:23:58.174Z,92583.81
2018-06-20T03:26:32.588Z,92588.04
2018-06-20T03:29:06.527Z,92586.84
2018-06-20T03:31:41.717Z,92595.85
2018-06-20T03:34:15.991Z,92594.71
2018-06-20T03:36:50.141Z,92596.84
2018-06-20T03:39:24.069Z,92597.98
2018-06-20T03:41:58.118Z,92597.53
2018-06-20T03:44:32.124Z,92596.18
2018-06-20T03:47:06.102Z,92604.00
2018-06-20T03:49:40.294Z,92609.11
2018-06-20T03:52:14.551Z,92608.52
2018-06-20T03:54:48.600Z,92607.77
2018-06-20T03:57:22.543Z,92611.30
2018-06-20T03:59:56.455Z,92611.98
2018-06-20T04:02:30.461Z,92615.52
2018-06-20T04:05:07.882Z,92616.80
2018-06-20T04:07:42.449Z,92616.80
2018-06-20T04:10:16.537Z,92617.38
2018-06-20T04:12:50.621Z,92620.82
2018-06-20T04:15:24.534Z,92619.51
2018-06-20T04:17:58.546Z,92616.91
2018-06-20T04:20:32.469Z,92619.64
2018-06-20T04:23:06.499Z,92623.91
2018-06-20T04:25:40.523Z,92627.97
2018-06-20T04:28:14.603Z,92622.94
2018-06-20T04:30:48.572Z,92624.58
2018-06-20T04:33:22.493Z,92620.88
2018-06-20T04:35:56.708Z,92629.14
2018-06-20T04:38:24.767Z,92635.66
2018-06-20T04:40:52.682Z,92632.76
2018-06-20T04:43:20.579Z,92629.32
2018-06-20T04:45:48.570Z,92622.71
2018-06-20T04:48:16.593Z,92631.24
2018-06-20T04:50:46.742Z,92632.56
2018-06-20T04:53:14.699Z,92633.66
2018-06-20T04:55:42.691Z,92636.01
2018-06-20T04:58:10.620Z,92638.37
2018-06-20T05:00:40.976Z,92635.81
2018-06-20T05:03:08.996Z,92637.08
2018-06-20T05:05:36.957Z,92632.61
2018-06-20T05:08:04.964Z,92637.06
2018-06-20T05:10:32.873Z,92633.71
2018-06-20T05:13:00.817Z,92633.52
2018-06-20T05:15:28.795Z,92637.94
2018-06-20T05:17:56.752Z,92636.39
2018-06-20T05:20:24.667Z,92632.02
2018-06-20T05:22:52.683Z,92632.55
2018-06-20T05:25:20.664Z,92632.34
2018-06-20T05:27:48.639Z,92637.84
2018-06-20T05:30:16.590Z,92638.83
2018-06-20T05:32:44.584Z,92630.39
2018-06-20T05:35:12.468Z,92635.47
2018-06-20T05:37:40.711Z,92636.86
2018-06-20T05:40:08.753Z,92637.09
2018-06-20T05:42:37.247Z,92637.66
2018-06-20T05:45:05.327Z,92638.31
2018-06-20T05:47:33.257Z,92634.22
2018-06-20T05:50:01.151Z,92638.42
2018-06-20T05:52:31.138Z,92639.44
2018-06-20T05:54:59.559Z,92637.18
2018-06-20T05:57:27.556Z,92642.38
2018-06-20T05:59:55.537Z,92641.16
2018-06-20T06:02:25.778Z,92641.16
2018-06-20T06:04:53.760Z,92645.58
2018-06-20T06:07:21.768Z,92647.30
2018-06-20T06:09:49.689Z,92646.96
2018-06-20T06:12:17.633Z,92651.75
2018-06-20T06:14:45.625Z,92647.21
2018-06-20T06:17:15.659Z,92654.59
2018-06-20T06:19:43.774Z,92649.14
2018-06-20T06:22:13.453Z,92648.63
2018-06-20T06:24:41.370Z,92650.55
2018-06-20T06:27:09.291Z,92646.33
2018-06-20T06:29:37.305Z,92649.42
2018-06-20T06:32:05.253Z,92647.94
2018-06-20T06:34:33.179Z,92650.33
2018-06-20T06:37:01.208Z,92647.23
2018-06-20T06:39:29.221Z,92650.34
2018-06-20T06:41:57.153Z,92644.97
2018-06-20T06:44:37.447Z,92652.95
2018-06-20T06:47:05.734Z,92645.20
2018-06-20T06:49:35.973Z,92641.95
2018-06-20T06:52:07.725Z,92649.84
2018-06-20T06:54:38.033Z,92640.63
2018-06-20T06:57:07.747Z,92632.52
2018-06-20T06:59:42.163Z,92633.64
2018-06-20T07:02:11.667Z,92630.74
2018-06-20T07:04:39.773Z,92637.95
2018-06-20T07:07:07.864Z,92636.63
2018-06-20T07:09:35.875Z,92630.42
2018-06-20T07:12:03.848Z,92630.71
2018-06-20T07:14:31.755Z,92630.05
2018-06-20T07:17:04.396Z,92640.02
2018-06-20T07:19:34.534Z,92640.27
2018-06-20T07:22:02.510Z,92646.37
2018-06-20T07:24:30.570Z,92646.77
2018-06-20T07:26:59.421Z,92642.27
2018-06-20T07:29:27.574Z,92640.69
2018-06-20T07:31:59.559Z,92639.84
2018-06-20T07:34:28.341Z,92635.98
2018-06-20T07:36:57.168Z,92627.52
2018-06-20T07:39:27.785Z,92632.72
2018-06-20T07:41:56.350Z,92643.45
2018-06-20T07:44:24.531Z,92641.22
2018-06-20T07:46:52.552Z,92635.34
2018-06-20T07:49:20.481Z,92624.66
2018-06-20T07:51:48.432Z,92622.69
2018-06-20T07:54:16.460Z,92617.10
2018-06-20T07:56:47.455Z,92620.80
2018-06-20T07:59:15.750Z,92623.11
2018-06-20T08:02:00.351Z,92628.75
2018-06-20T08:04:34.962Z,92636.06
2018-06-20T08:07:09.136Z,92631.95
2018-06-20T08:09:42.863Z,92619.10
2018-06-20T08:12:16.717Z,92626.73
2018-06-20T08:14:50.976Z,92624.09
2018-06-20T08:17:25.559Z,92623.50
2018-06-20T08:19:56.996Z,92622.91
2018-06-20T08:22:25.914Z,92624.92
2018-06-20T08:25:03.597Z,92626.65
2018-06-20T08:27:32.707Z,92627.45
2018-06-20T08:30:16.402Z,92627.80
2018-06-20T08:32:44.418Z,92631.86
2018-06-20T08:35:12.355Z,92628.53
2018-06-20T08:37:40.324Z,92620.91
2018-06-20T08:40:08.251Z,92621.41
2018-06-20T08:42:36.191Z,92620.38
2018-06-20T08:45:04.222Z,92622.21
2018-06-20T08:47:32.148Z,92623.62
2018-06-20T08:50:00.076Z,92627.53
2018-06-20T08:52:28.171Z,92615.92
2018-06-20T08:54:56.111Z,92610.18
2018-06-20T08:57:24.146Z,92607.28
2018-06-20T08:59:52.441Z,92608.47
2018-06-20T09:02:22.914Z,92618.45
2018-06-20T09:07:56.972Z,92622.52
2018-06-20T09:10:30.501Z,92625.98
2018-06-20T09:13:03.847Z,92625.61
2018-06-20T09:15:37.275Z,92618.73
2018-06-20T09:18:11.236Z,92625.81
2018-06-20T09:20:39.181Z,92614.95
2018-06-20T09:23:08.860Z,92612.45
2018-06-20T09:25:37.265Z,92607.62
2018-06-20T09:28:06.253Z,92609.81
2018-06-20T09:30:34.349Z,92607.98
2018-06-20T09:33:03.526Z,92608.50
2018-06-20T09:35:31.532Z,92602.01
2018-06-20T09:38:06.863Z,92607.57
2018-06-20T09:40:34.890Z,92602.04
2018-06-20T09:43:02.956Z,92594.42
2018-06-20T09:45:31.018Z,92590.43
2018-06-20T09:47:58.947Z,92596.43
2018-06-20T09:50:32.454Z,92590.52
2018-06-20T09:53:00.371Z,92590.02
2018-06-20T09:55:28.350Z,92590.77
2018-06-20T09:57:56.520Z,92589.68
2018-06-20T10:00:29.807Z,92588.56
2018-06-20T10:03:03.746Z,92598.28
2018-06-20T10:05:37.104Z,92583.86
2018-06-20T10:08:10.723Z,92593.20
2018-06-20T10:10:44.024Z,92586.34
2018-06-20T10:13:14.997Z,92599.48
2018-06-20T10:15:42.999Z,92582.59
2018-06-20T10:18:10.919Z,92597.41
2018-06-20T10:20:38.951Z,92594.98
2018-06-20T10:23:06.916Z,92595.76
2018-06-20T10:25:34.827Z,92593.33
2018-06-20T10:28:02.806Z,92583.59
2018-06-20T10:30:30.722Z,92576.97
2018-06-20T10:32:58.642Z,92587.18
2018-06-20T10:35:26.615Z,92585.00
2018-06-20T10:37:54.560Z,92577.19
2018-06-20T10:40:23.519Z,92573.11
2018-06-20T10:42:51.534Z,92573.33
2018-06-20T10:45:24.839Z,92577.23
2018-06-20T10:47:52.831Z,92571.35
2018-06-20T10:50:20.921Z,92576.27
2018-06-20T10:52:48.819Z,92570.77
2018-06-20T10:55:17.539Z,92563.34
2018-06-20T10:57:50.946Z,92560.77
2018-06-20T11:00:24.604Z,92554.08
2018-06-20T11:02:58.157Z,92569.02
2018-06-20T11:05:31.635Z,92560.27
2018-06-20T11:08:04.965Z,92562.66
2018-06-20T11:10:38.272Z,92561.39
2018-06-20T11:13:09.104Z,92557.25
2018-06-20T11:15:37.023Z,92557.84
2018-06-20T11:18:05.208Z,92557.56
2018-06-20T11:20:38.648Z,92556.29
2018-06-20T11:23:06.603Z,92556.63
2018-06-20T11:25:34.551Z,92557.13
2018-06-20T11:28:06.966Z,92553.44
2018-06-20T11:30:34.963Z,92552.51
2018-06-20T11:33:02.928Z,92546.46
2018-06-20T11:35:30.905Z,92545.56
2018-06-20T11:37:59.071Z,92544.98
2018-06-20T11:40:27.013Z,92543.88
2018-06-20T11:42:54.962Z,92540.56
2018-06-20T11:45:23.026Z,92539.06
2018-06-20T11:47:50.982Z,92541.25
2018-06-20T11:50:18.946Z,92540.87
2018-06-20T11:52:52.600Z,92528.78
2018-06-20T11:55:25.888Z,92538.73
2018-06-20T11:57:58.371Z,92524.09
2018-06-20T12:00:32.075Z,92525.87
2018-06-20T12:03:05.595Z,92539.23
2018-06-20T12:05:39.007Z,92527.98
2018-06-20T12:08:12.361Z,92528.02
2018-06-20T12:10:45.615Z,92533.88
2018-06-20T12:13:19.124Z,92531.48
2018-06-20T12:15:52.500Z,92519.41
2018-06-20T12:18:25.931Z,92522.53
2018-06-20T12:20:59.278Z,92516.97
2018-06-20T12:23:32.790Z,92517.58
2018-06-20T12:26:06.125Z,92523.20
2018-06-20T12:28:39.721Z,92512.40
2018-06-20T12:31:13.166Z,92511.30
2018-06-20T12:33:46.605Z,92510.83
2018-06-20T12:36:20.075Z,92510.98
2018-06-20T12:38:53.537Z,92512.01
2018-06-20T12:43:33.514Z,92510.19
2018-06-20T12:46:01.770Z,92508.42
2018-06-20T12:48:29.724Z,92507.46
2018-06-20T12:50:57.651Z,92516.41
2018-06-20T12:53:25.604Z,92507.83
2018-06-20T12:55:53.553Z,92505.02
2018-06-20T12:58:21.515Z,92508.44
2018-06-20T13:00:49.551Z,92512.12
2018-06-20T13:03:17.460Z,92504.91
2018-06-20T13:05:45.408Z,92507.73
2018-06-20T13:08:13.411Z,92504.38
2018-06-20T13:10:41.327Z,92502.17
2018-06-20T13:13:09.248Z,92499.75
2018-06-20T13:15:37.209Z,92498.22
2018-06-20T13:18:05.148Z,92498.34
2018-06-20T13:20:33.076Z,92491.20
2018-06-20T13:23:01.031Z,92490.81
2018-06-20T13:25:28.972Z,92497.91
2018-06-20T13:27:56.986Z,92499.59
2018-06-20T13:30:25.027Z,92500.70
2018-06-20T13:32:58.327Z,92500.15
2018-06-20T13:35:31.688Z,92493.80
2018-06-20T13:38:05.131Z,92483.70
2018-06-20T13:40:38.756Z,92489.60
2018-06-20T13:43:12.352Z,92486.01
2018-06-20T13:45:45.955Z,92477.65
2018-06-20T13:48:19.519Z,92470.31
2018-06-20T13:50:47.741Z,92476.84
2018-06-20T13:53:15.855Z,92490.10
2018-06-20T13:55:43.960Z,92473.50
2018-06-20T13:58:13.579Z,92477.72
2018-06-20T14:00:42.371Z,92477.39
2018-06-20T14:03:10.460Z,92479.06
2018-06-20T14:05:38.627Z,92465.05
2018-06-20T14:08:06.563Z,92465.44
2018-06-20T14:10:34.491Z,92465.46
2018-06-20T14:13:03.009Z,92468.24
2018-06-20T14:15:33.180Z,92470.34
2018-06-20T14:18:01.128Z,92459.90
2018-06-20T14:20:34.497Z,92457.86
2018-06-20T14:23:02.519Z,92461.27
2018-06-20T14:25:31.018Z,92468.23
2018-06-20T14:27:59.062Z,92461.14
2018-06-20T14:30:32.371Z,92457.06
2018-06-20T14:33:05.825Z,92451.31
2018-06-20T14:35:39.151Z,92451.41
2018-06-20T14:38:12.586Z,92446.95
2018-06-20T14:40:45.982Z,92456.87
2018-06-20T14:43:19.458Z,92452.89
2018-06-20T14:45:52.806Z,92451.55
2018-06-20T14:50:54.658Z,92452.22
2018-06-20T14:53:22.591Z,92452.27
2018-06-20T14:55:50.550Z,92444.62
2018-06-20T14:58:18.495Z,92448.81
2018-06-20T15:00:46.464Z,92443.52
2018-06-20T15:03:15.015Z,92443.67
2018-06-20T15:05:43.066Z,92438.88
2018-06-20T15:08:11.128Z,92437.84
2018-06-20T15:10:39.108Z,92437.03
2018-06-20T15:13:07.027Z,92435.05
2018-06-20T15:15:34.994Z,92432.76
2018-06-20T15:18:03.048Z,92435.93
2018-06-20T15:20:31.061Z,92432.63
2018-06-20T15:22:59.001Z,92433.20
2018-06-20T15:25:32.585Z,92435.37
2018-06-20T15:28:06.069Z,92439.30
2018-06-20T15:30:39.350Z,92424.71
2018-06-20T15:33:12.777Z,92425.48
2018-06-20T15:35:46.165Z,92428.52
2018-06-20T15:38:17.568Z,92429.59
2018-06-20T15:40:45.930Z,92425.84
2018-06-20T15:43:14.176Z,92423.70
2018-06-20T15:45:42.175Z,92425.14
2018-06-20T15:48:10.179Z,92425.29
2018-06-20T15:50:38.370Z,92427.27
2018-06-20T15:53:06.391Z,92435.22
2018-06-20T15:55:34.362Z,92435.64
2018-06-20T15:58:02.391Z,92427.96
2018-06-20T16:00:30.362Z,92429.84
2018-06-20T16:02:58.582Z,92428.66
2018-06-20T16:05:26.777Z,92428.77
2018-06-20T16:07:54.715Z,92430.66
2018-06-20T16:10:22.671Z,92433.16
2018-06-20T16:12:50.644Z,92435.98
2018-06-20T16:15:18.776Z,92431.66
2018-06-20T16:17:46.717Z,92437.14
2018-06-20T16:20:20.069Z,92438.99
2018-06-20T16:22:53.527Z,92441.39
2018-06-20T16:25:27.497Z,92435.90
2018-06-20T16:28:01.025Z,92436.60
2018-06-20T16:30:33.440Z,92433.69
2018-06-20T16:33:01.393Z,92444.66
2018-06-20T16:35:29.320Z,92440.07
2018-06-20T16:37:57.365Z,92444.91
2018-06-20T16:40:25.439Z,92440.41
2018-06-20T16:42:56.929Z,92444.77
2018-06-20T16:45:25.511Z,92442.54
2018-06-20T16:47:53.445Z,92454.08
2018-06-20T16:50:21.508Z,92450.84
2018-06-20T16:52:50.766Z,92455.11
2018-06-20T16:55:19.583Z,92450.17
2018-06-20T16:57:48.755Z,92455.39
2018-06-20T17:00:16.707Z,92455.39
2018-06-20T17:02:44.883Z,92458.38
2018-06-20T17:05:13.299Z,92461.77
2018-06-20T17:07:41.656Z,92456.87
2018-06-20T17:10:09.799Z,92459.77
2018-06-20T17:14:51.003Z,92456.54
2018-06-20T17:17:24.280Z,92457.78
2018-06-20T17:19:57.887Z,92454.95
2018-06-20T17:22:31.379Z,92464.72
2018-06-20T17:25:05.271Z,92457.20
2018-06-20T17:27:33.444Z,92465.77
2018-06-20T17:30:01.566Z,92464.19
2018-06-20T17:32:29.625Z,92470.20
2018-06-20T17:34:57.616Z,92480.13
2018-06-20T17:37:26.274Z,92477.97
2018-06-20T17:39:55.074Z,92476.94
2018-06-20T17:42:27.086Z,92474.22
2018-06-20T17:44:55.956Z,92480.44
2018-06-20T17:47:24.895Z,92482.38
2018-06-20T17:49:54.143Z,92479.06
2018-06-20T17:52:23.932Z,92480.61
2018-06-20T17:54:53.235Z,92478.84
2018-06-20T17:57:21.433Z,92474.73
2018-06-20T17:59:49.491Z,92490.09
2018-06-20T18:02:17.814Z,92482.08
2018-06-20T18:04:54.291Z,92483.55
2018-06-20T18:07:27.872Z,92484.48
2018-06-20T18:10:01.522Z,92485.64
2018-06-20T18:12:32.352Z,92486.47
2018-06-20T18:15:06.612Z,92480.53
2018-06-20T18:17:37.263Z,92484.95
2018-06-20T18:20:06.192Z,92486.63
2018-06-20T18:22:34.336Z,92484.63
2018-06-20T18:25:02.557Z,92493.52
2018-06-20T18:27:30.840Z,92503.84
2018-06-20T18:29:59.940Z,92504.20
2018-06-20T18:32:29.484Z,92505.33
2018-06-20T18:34:57.608Z,92504.34
2018-06-20T18:37:27.127Z,92507.95
2018-06-20T18:40:00.899Z,92512.19
2018-06-20T18:42:29.377Z,92511.06
2018-06-20T18:44:58.488Z,92511.91
2018-06-20T18:47:33.029Z,92520.27
2018-06-20T18:50:01.431Z,92527.38
2018-06-20T18:52:30.546Z,92528.84
2018-06-20T18:54:58.747Z,92535.32
2018-06-20T18:57:32.479Z,92537.34
2018-06-20T19:00:06.961Z,92537.23
2018-06-20T19:02:40.481Z,92538.06
2018-06-20T19:05:14.180Z,92545.89
2018-06-20T19:07:47.680Z,92552.91
2018-06-20T19:10:15.774Z,92551.61
2018-06-20T19:12:43.855Z,92549.64
2018-06-20T19:15:11.843Z,92551.53
2018-06-20T19:17:40.181Z,92563.16
2018-06-20T19:20:08.191Z,92568.02
2018-06-20T19:22:36.549Z,92565.42
2018-06-20T19:25:04.991Z,92565.84
2018-06-20T19:27:33.364Z,92565.77
2018-06-20T19:30:01.644Z,92570.67
2018-06-20T19:32:29.826Z,92573.22
2018-06-20T19:34:58.720Z,92570.92
2018-06-20T19:37:26.643Z,92574.47
2018-06-20T19:39:55.213Z,92578.98
2018-06-20T19:42:24.479Z,92576.97
2018-06-20T19:44:52.684Z,92582.16
2018-06-20T19:47:20.654Z,92581.55
2018-06-20T19:49:48.809Z,92587.16
2018-06-20T19:52:17.073Z,92582.11
2018-06-20T19:54:45.314Z,92587.98
2018-06-20T19:57:13.320Z,92589.56
2018-06-20T19:59:47.575Z,92592.56
2018-06-20T20:02:23.223Z,92597.68
2018-06-20T20:04:57.255Z,92593.16
2018-06-20T20:07:31.284Z,92593.16
2018-06-20T20:10:05.251Z,92598.83
2018-06-20T20:12:39.424Z,92603.13
2018-06-20T20:15:13.534Z,92602.84
2018-06-20T20:17:47.703Z,92601.17
2018-06-20T20:20:27.116Z,92603.79
2018-06-20T20:23:01.329Z,92597.25
2018-06-20T20:25:35.497Z,92590.83
2018-06-20T20:28:09.532Z,92586.83
2018-06-20T20:30:43.591Z,92594.02
2018-06-20T20:33:17.537Z,92591.95
2018-06-20T20:35:51.633Z,92598.64
2018-06-20T20:38:25.880Z,92595.41
2018-06-20T20:41:00.083Z,92590.11
2018-06-20T20:43:34.072Z,92605.08
2018-06-20T20:46:08.037Z,92594.02
2018-06-20T20:48:42.010Z,92596.84
2018-06-20T20:51:15.928Z,92596.66
2018-06-20T20:53:49.899Z,92601.36
2018-06-20T20:56:24.025Z,92599.45
2018-06-20T20:58:57.933Z,92601.48
2018-06-20T21:01:32.068Z,92597.98
2018-06-20T21:04:06.259Z,92604.30
2018-06-20T21:06:40.342Z,92603.48
2018-06-20T21:09:14.250Z,92603.14
2018-06-20T21:11:48.392Z,92606.76
2018-06-20T21:14:22.636Z,92606.48
2018-06-20T21:16:56.652Z,92600.17
2018-06-20T21:19:30.704Z,92595.86
2018-06-20T21:22:04.684Z,92588.46
2018-06-20T21:24:39.198Z,92582.69
2018-06-20T21:27:14.223Z,92584.32
2018-06-20T21:29:49.721Z,92578.45
2018-06-20T21:32:24.215Z,92585.30
2018-06-20T21:34:59.130Z,92582.42
2018-06-20T21:37:33.269Z,92587.92
2018-06-20T21:40:10.012Z,92590.06
2018-06-20T21:42:44.393Z,92588.00
2018-06-20T21:45:18.999Z,92584.02
2018-06-20T21:47:53.172Z,92584.84
2018-06-20T21:50:27.784Z,92587.50
2018-06-20T21:53:01.739Z,92583.56
2018-06-20T21:55:35.819Z,92582.74
2018-06-20T21:58:10.049Z,92581.46
2018-06-20T22:00:45.596Z,92584.13
2018-06-20T22:03:19.590Z,92579.59
2018-06-20T22:05:53.515Z,92590.64
2018-06-20T22:08:27.492Z,92591.34
2018-06-20T22:11:01.405Z,92590.03
2018-06-20T22:13:35.726Z,92590.75
2018-06-20T22:16:09.996Z,92591.73
2018-06-20T22:18:44.110Z,92588.31
2018-06-20T22:21:18.036Z,92587.82
2018-06-20T22:23:52.001Z,92587.64
2018-06-20T22:26:26.083Z,92589.39
2018-06-20T22:29:00.094Z,92593.25
2018-06-20T22:31:34.151Z,92593.77
2018-06-20T22:34:08.247Z,92589.53
2018-06-20T22:36:42.313Z,92589.59
2018-06-20T22:39:16.367Z,92596.19
2018-06-20T22:41:50.343Z,92587.98
2018-06-20T22:44:24.366Z,92589.41
2018-06-20T22:46:58.367Z,92587.77
2018-06-20T22:49:32.363Z,92584.03
2018-06-20T22:52:06.325Z,92584.72
2018-06-20T22:54:40.234Z,92581.17
2018-06-20T22:57:14.178Z,92594.81
2018-06-20T22:59:48.269Z,92598.08
2018-06-20T23:02:22.180Z,92584.23
2018-06-20T23:04:56.199Z,92586.78
2018-06-20T23:07:30.218Z,92588.84
2018-06-20T23:10:04.531Z,92586.72
2018-06-20T23:12:38.428Z,92588.26
2018-06-20T23:15:12.431Z,92587.83
2018-06-20T23:17:46.474Z,92591.70
2018-06-20T23:20:20.480Z,92596.33
2018-06-20T23:22:54.372Z,92603.05
2018-06-20T23:25:28.393Z,92598.73
2018-06-20T23:28:02.462Z,92601.30
2018-06-20T23:30:36.413Z,92598.36
2018-06-20T23:33:10.434Z,92596.77
2018-06-20T23:35:44.580Z,92597.11
2018-06-20T23:38:18.667Z,92600.33
2018-06-20T23:40:52.727Z,92594.02
2018-06-20T23:43:26.734Z,92594.80
2018-06-20T23:46:00.690Z,92592.44
2018-06-20T23:48:34.628Z,92591.58
2018-06-20T23:51:08.823Z,92581.66
2018-06-20T23:53:42.987Z,92585.53
2018-06-20T23:56:16.982Z,92581.02
2018-06-20T23:58:51.009Z,92576.17
